createdAt,value
2019-04-27T00:02:36.796Z,94.80
2019-04-27T00:05:36.485Z,95.30
2019-04-27T00:08:39.134Z,95.00
2019-04-27T00:11:25.096Z,94.30
2019-04-27T00:14:15.041Z,94.50
2019-04-27T00:17:41.180Z,95.20
2019-04-27T00:23:10.744Z,94.70
2019-04-27T00:25:52.727Z,95.00
2019-04-27T00:28:33.989Z,94.80
2019-04-27T00:31:14.277Z,95.00
2019-04-27T00:33:54.664Z,94.50
2019-04-27T00:36:43.458Z,94.40
2019-04-27T00:39:43.394Z,94.00
2019-04-27T00:42:11.125Z,94.10
2019-04-27T00:44:58.144Z,93.40
2019-04-27T00:47:56.543Z,94.00
2019-04-27T00:50:27.010Z,94.20
2019-04-27T00:53:06.925Z,94.10
2019-04-27T00:56:06.571Z,94.10
2019-04-27T00:59:05.804Z,93.60
2019-04-27T01:02:11.187Z,93.60
2019-04-27T01:04:51.013Z,93.30
2019-04-27T01:07:30.979Z,92.70
2019-04-27T01:10:11.140Z,92.70
2019-04-27T01:12:53.025Z,92.20
2019-04-27T01:15:33.953Z,91.60
2019-04-27T01:18:15.551Z,91.60
2019-04-27T01:20:55.423Z,91.80
2019-04-27T01:23:35.495Z,91.90
2019-04-27T01:26:34.961Z,92.10
2019-04-27T01:32:15.360Z,91.90
2019-04-27T01:34:55.037Z,92.20
2019-04-27T01:37:35.141Z,91.90
2019-04-27T01:40:15.051Z,92.10
2019-04-27T01:42:55.213Z,91.70
2019-04-27T01:45:34.949Z,92.50
2019-04-27T01:48:23.087Z,92.60
2019-04-27T01:50:56.942Z,92.80
2019-04-27T01:53:38.888Z,92.60
2019-04-27T01:56:19.489Z,92.10
2019-04-27T01:59:00.019Z,91.60
2019-04-27T02:02:02.309Z,91.40
2019-04-27T02:05:01.878Z,91.00
2019-04-27T02:07:43.702Z,90.80
2019-04-27T02:10:23.745Z,90.90
2019-04-27T02:13:03.749Z,90.70
2019-04-27T02:15:43.697Z,90.90
2019-04-27T02:18:34.782Z,91.00
2019-04-27T02:21:05.982Z,91.60
2019-04-27T02:23:46.065Z,90.40
2019-04-27T02:26:26.182Z,90.80
2019-04-27T02:29:25.894Z,91.00
2019-04-27T02:35:09.195Z,90.90
2019-04-27T02:37:50.265Z,91.00
2019-04-27T02:40:30.555Z,91.10
2019-04-27T02:43:12.452Z,91.00
2019-04-27T02:45:52.530Z,91.00
2019-04-27T02:48:20.425Z,90.70
2019-04-27T02:54:12.027Z,90.70
2019-04-27T02:56:52.694Z,91.00
2019-04-27T02:59:33.162Z,91.30
2019-04-27T03:02:32.633Z,91.50
2019-04-27T03:05:13.346Z,91.60
2019-04-27T03:07:53.406Z,91.60
2019-04-27T03:10:33.695Z,91.90
2019-04-27T03:19:49.455Z,92.30
2019-04-27T03:22:39.776Z,92.50
2019-04-27T03:25:40.049Z,92.30
2019-04-27T03:28:20.730Z,92.50
2019-04-27T03:31:02.595Z,92.90
2019-04-27T03:33:43.438Z,93.20
2019-04-27T03:36:23.169Z,93.30
2019-04-27T03:39:03.293Z,93.30
2019-04-27T03:41:43.611Z,92.70
2019-04-27T03:47:22.443Z,92.60
2019-04-27T03:50:02.965Z,92.00
2019-04-27T03:55:55.114Z,91.70
2019-04-27T03:58:41.572Z,91.80
2019-04-27T04:01:21.891Z,91.80
2019-04-27T04:04:02.034Z,91.80
2019-04-27T04:06:42.073Z,91.60
2019-04-27T04:09:40.155Z,91.70
2019-04-27T04:12:26.442Z,92.00
2019-04-27T04:15:09.990Z,91.90
2019-04-27T04:17:50.125Z,91.70
2019-04-27T04:20:30.569Z,91.90
2019-04-27T04:23:11.049Z,91.60
2019-04-27T04:25:51.352Z,91.20
2019-04-27T04:28:31.130Z,90.70
2019-04-27T04:31:13.813Z,91.10
2019-04-27T04:33:53.177Z,91.30
2019-04-27T04:36:33.424Z,91.20
2019-04-27T04:39:13.534Z,91.00
2019-04-27T04:44:55.999Z,91.10
2019-04-27T04:50:49.899Z,91.30
2019-04-27T04:53:29.751Z,91.60
2019-04-27T04:56:10.765Z,91.50
2019-04-27T04:58:50.894Z,91.80
2019-04-27T05:01:30.954Z,91.60
2019-04-27T05:04:11.331Z,91.40
2019-04-27T05:06:51.363Z,91.30
2019-04-27T05:09:31.498Z,91.30
2019-04-27T05:12:11.657Z,91.30
2019-04-27T05:14:51.629Z,91.40
2019-04-27T05:17:32.007Z,91.30
2019-04-27T05:20:39.538Z,91.40
2019-04-27T05:23:20.413Z,92.00
2019-04-27T05:26:00.508Z,91.50
2019-04-27T05:28:40.922Z,90.90
2019-04-27T05:31:20.543Z,90.90
2019-04-27T05:37:12.677Z,90.90
2019-04-27T05:39:52.894Z,90.80
2019-04-27T05:42:32.961Z,91.40
2019-04-27T05:45:41.247Z,91.30
2019-04-27T05:48:30.751Z,91.20
2019-04-27T05:51:11.096Z,90.90
2019-04-27T05:53:51.307Z,90.90
2019-04-27T05:56:31.426Z,90.60
2019-04-27T05:59:14.540Z,91.00
2019-04-27T06:01:53.846Z,90.80
2019-04-27T06:04:33.965Z,90.80
2019-04-27T06:07:13.965Z,90.40
2019-04-27T06:09:53.750Z,90.00
2019-04-27T06:12:33.794Z,90.20
2019-04-27T06:15:14.025Z,90.60
2019-04-27T06:17:41.958Z,90.50
2019-04-27T06:20:29.274Z,90.50
2019-04-27T06:23:16.301Z,90.30
2019-04-27T06:25:56.347Z,88.80
2019-04-27T06:28:36.578Z,89.00
2019-04-27T06:31:16.626Z,89.70
2019-04-27T06:33:59.529Z,90.10
2019-04-27T06:36:38.954Z,90.80
2019-04-27T06:39:20.574Z,90.80
2019-04-27T06:42:01.414Z,91.00
2019-04-27T06:44:41.429Z,91.10
2019-04-27T06:47:21.677Z,90.60
2019-04-27T06:50:01.810Z,90.20
2019-04-27T06:52:42.281Z,90.50
2019-04-27T06:55:22.510Z,90.70
2019-04-27T06:58:02.709Z,90.50
2019-04-27T07:00:42.817Z,90.50
2019-04-27T07:03:22.743Z,90.40
2019-04-27T07:06:03.009Z,90.10
2019-04-27T07:08:43.123Z,90.60
2019-04-27T07:11:23.309Z,90.90
2019-04-27T07:14:03.601Z,90.70
2019-04-27T07:16:43.569Z,89.10
2019-04-27T07:19:23.698Z,87.40
2019-04-27T07:22:04.410Z,86.00
2019-04-27T07:24:45.022Z,83.80
2019-04-27T07:27:24.899Z,83.40
2019-04-27T07:30:05.166Z,82.70
2019-04-27T07:32:45.141Z,81.80
2019-04-27T07:35:25.155Z,81.80
2019-04-27T07:38:05.270Z,82.30
2019-04-27T07:40:45.354Z,82.70
2019-04-27T07:46:34.162Z,81.20
2019-04-27T07:49:14.649Z,83.20
2019-04-27T07:51:54.643Z,82.30
2019-04-27T07:54:34.753Z,80.20
2019-04-27T07:57:14.855Z,79.40
2019-04-27T07:59:54.830Z,79.40
2019-04-27T08:02:34.974Z,79.60
2019-04-27T08:05:15.156Z,80.90
2019-04-27T08:07:55.218Z,81.00
2019-04-27T08:10:35.222Z,80.10
2019-04-27T08:13:15.403Z,80.30
2019-04-27T08:15:55.631Z,80.40
2019-04-27T08:18:35.598Z,79.00
2019-04-27T08:21:15.667Z,78.50
2019-04-27T08:23:55.824Z,77.20
2019-04-27T08:26:42.740Z,75.70
2019-04-27T08:29:42.411Z,76.50
2019-04-27T08:32:28.868Z,72.00
2019-04-27T08:35:09.602Z,70.90
2019-04-27T08:37:49.669Z,71.60
2019-04-27T08:40:29.514Z,72.40
2019-04-27T08:43:09.640Z,72.80
2019-04-27T08:45:49.762Z,72.90
2019-04-27T08:48:34.738Z,73.40
2019-04-27T08:51:12.108Z,75.30
2019-04-27T08:53:52.040Z,77.60
2019-04-27T08:56:32.134Z,79.50
2019-04-27T08:59:12.388Z,81.70
2019-04-27T09:01:52.425Z,82.50
2019-04-27T09:04:32.722Z,83.30
2019-04-27T09:07:33.372Z,83.50
2019-04-27T09:10:19.310Z,84.90
2019-04-27T09:13:06.443Z,84.10
2019-04-27T09:19:08.707Z,85.30
2019-04-27T09:22:15.877Z,87.30
2019-04-27T09:24:49.661Z,90.00
2019-04-27T09:30:11.791Z,91.30
2019-04-27T09:32:40.786Z,91.40
2019-04-27T09:35:28.405Z,88.20
2019-04-27T09:38:08.315Z,90.00
2019-04-27T09:40:48.427Z,90.10
2019-04-27T09:43:28.570Z,90.50
2019-04-27T09:46:08.672Z,90.90
2019-04-27T09:48:48.630Z,91.40
2019-04-27T09:51:28.722Z,89.70
2019-04-27T09:54:08.861Z,85.30
2019-04-27T09:56:49.054Z,83.20
2019-04-27T09:59:29.374Z,82.10
2019-04-27T10:02:09.469Z,81.10
2019-04-27T10:04:50.261Z,79.90
2019-04-27T10:07:29.914Z,77.30
2019-04-27T10:10:10.206Z,77.70
2019-04-27T10:12:50.237Z,77.60
2019-04-27T10:15:30.299Z,74.70
2019-04-27T10:18:10.478Z,74.60
2019-04-27T10:20:59.017Z,74.90
2019-04-27T10:23:32.738Z,75.80
2019-04-27T10:26:12.885Z,77.00
2019-04-27T10:28:52.794Z,77.60
2019-04-27T10:31:33.023Z,77.80
2019-04-27T10:34:13.182Z,76.60
2019-04-27T10:36:40.951Z,77.00
2019-04-27T10:39:27.989Z,77.30
2019-04-27T10:42:08.407Z,75.00
2019-04-27T10:44:50.486Z,76.60
2019-04-27T10:47:30.278Z,77.70
2019-04-27T10:50:10.936Z,76.40
2019-04-27T10:52:53.561Z,78.30
2019-04-27T10:55:32.709Z,79.60
2019-04-27T10:58:13.094Z,81.10
2019-04-27T11:03:58.548Z,82.10
2019-04-27T11:06:49.377Z,81.50
2019-04-27T11:09:29.814Z,79.50
2019-04-27T11:12:09.916Z,78.60
2019-04-27T11:14:50.979Z,78.10
2019-04-27T11:17:31.278Z,74.60
2019-04-27T11:20:11.489Z,76.40
2019-04-27T11:22:51.681Z,76.30
2019-04-27T11:25:31.721Z,75.00
2019-04-27T11:28:11.841Z,75.90
2019-04-27T11:30:52.221Z,77.30
2019-04-27T11:33:32.362Z,77.70
2019-04-27T11:36:31.967Z,77.70
2019-04-27T11:39:11.729Z,78.70
2019-04-27T11:41:51.961Z,79.10
2019-04-27T11:44:31.961Z,79.30
2019-04-27T11:46:59.728Z,79.80
2019-04-27T11:49:46.813Z,79.10
2019-04-27T11:52:33.862Z,77.80
2019-04-27T11:55:01.455Z,78.90
2019-04-27T11:57:48.645Z,73.60
2019-04-27T12:00:36.445Z,72.30
2019-04-27T12:03:17.596Z,71.70
2019-04-27T12:08:55.762Z,72.50
2019-04-27T12:11:36.338Z,72.60
2019-04-27T12:14:16.174Z,72.80
2019-04-27T12:16:56.419Z,73.00
2019-04-27T12:19:36.389Z,72.20
2019-04-27T12:22:16.502Z,72.50
2019-04-27T12:24:56.744Z,72.00
2019-04-27T12:31:02.332Z,74.10
2019-04-27T12:33:42.778Z,73.50
2019-04-27T12:36:10.501Z,73.60
2019-04-27T12:38:57.611Z,73.60
2019-04-27T12:41:46.185Z,73.60
2019-04-27T12:44:27.046Z,70.60
2019-04-27T12:47:07.877Z,69.10
2019-04-27T12:49:50.172Z,68.50
2019-04-27T12:52:31.478Z,68.90
2019-04-27T12:55:31.018Z,68.50
2019-04-27T13:01:08.145Z,69.60
2019-04-27T13:03:36.449Z,67.70
2019-04-27T13:06:24.889Z,67.00
2019-04-27T13:09:07.039Z,68.30
2019-04-27T13:11:34.567Z,67.40
2019-04-27T13:14:21.614Z,68.00
2019-04-27T13:17:08.734Z,69.50
2019-04-27T13:19:48.342Z,69.40
2019-04-27T13:22:28.442Z,69.60
2019-04-27T13:25:08.642Z,70.10
2019-04-27T13:27:51.044Z,69.40
2019-04-27T13:30:30.747Z,69.10
2019-04-27T13:33:11.121Z,70.20
2019-04-27T13:35:51.507Z,69.30
2019-04-27T13:38:31.268Z,68.30
2019-04-27T13:41:11.505Z,69.10
2019-04-27T13:43:51.602Z,68.80
2019-04-27T13:46:51.321Z,68.00
2019-04-27T13:49:50.530Z,67.70
2019-04-27T13:52:31.456Z,70.40
2019-04-27T13:55:11.430Z,71.30
2019-04-27T13:57:51.425Z,71.20
2019-04-27T14:00:32.669Z,69.40
2019-04-27T14:03:14.355Z,68.30
2019-04-27T14:05:54.671Z,65.90
2019-04-27T14:08:35.683Z,65.60
2019-04-27T14:11:15.626Z,64.90
2019-04-27T14:13:55.702Z,65.70
2019-04-27T14:16:35.635Z,66.10
2019-04-27T14:19:15.696Z,65.40
2019-04-27T14:21:55.891Z,63.20
2019-04-27T14:24:42.310Z,63.10
2019-04-27T14:27:24.701Z,63.80
2019-04-27T14:30:04.433Z,65.30
2019-04-27T14:32:44.624Z,64.20
2019-04-27T14:35:24.766Z,64.70
2019-04-27T14:38:04.781Z,63.80
2019-04-27T14:40:44.865Z,65.30
2019-04-27T14:43:12.513Z,65.70
2019-04-27T14:45:52.213Z,65.50
2019-04-27T14:48:21.238Z,64.90
2019-04-27T14:51:08.755Z,66.20
2019-04-27T14:53:58.797Z,65.20
2019-04-27T14:56:39.060Z,64.40
2019-04-27T14:59:19.370Z,63.40
2019-04-27T15:02:00.081Z,62.70
2019-04-27T15:04:42.432Z,62.40
2019-04-27T15:07:22.462Z,63.70
2019-04-27T15:10:04.736Z,64.40
2019-04-27T15:12:44.905Z,64.70
2019-04-27T15:15:12.866Z,64.10
2019-04-27T15:18:04.310Z,64.10
2019-04-27T15:20:48.737Z,63.20
2019-04-27T15:23:30.840Z,61.70
2019-04-27T15:26:15.458Z,63.10
2019-04-27T15:28:56.364Z,61.00
2019-04-27T15:31:40.829Z,61.60
2019-04-27T15:34:41.854Z,60.20
2019-04-27T15:40:58.195Z,60.70
2019-04-27T15:43:40.626Z,59.50
2019-04-27T15:46:20.199Z,59.10
2019-04-27T15:49:03.105Z,58.30
2019-04-27T15:51:42.809Z,58.70
2019-04-27T15:54:28.636Z,58.50
2019-04-27T15:57:09.582Z,59.80
2019-04-27T15:59:48.265Z,59.20
2019-04-27T16:02:28.934Z,58.20
2019-04-27T16:05:08.733Z,58.80
2019-04-27T16:07:48.663Z,58.90
2019-04-27T16:10:32.849Z,59.40
2019-04-27T16:13:15.183Z,61.20
2019-04-27T16:15:54.163Z,62.20
2019-04-27T16:18:35.301Z,64.30
2019-04-27T16:21:15.342Z,66.10
2019-04-27T16:23:55.520Z,69.50
2019-04-27T16:26:36.139Z,72.20
2019-04-27T16:32:15.283Z,78.80
2019-04-27T16:37:59.999Z,82.40
2019-04-27T16:40:46.530Z,84.90
2019-04-27T16:43:30.030Z,86.60
2019-04-27T16:45:57.862Z,87.50
2019-04-27T16:48:45.120Z,89.40
2019-04-27T16:51:12.885Z,90.30
2019-04-27T16:54:00.348Z,90.70
2019-04-27T16:56:45.827Z,90.90
2019-04-27T17:02:05.833Z,90.70
2019-04-27T17:04:54.086Z,90.00
2019-04-27T17:07:31.700Z,87.60
2019-04-27T17:10:09.585Z,85.50
2019-04-27T17:12:41.365Z,90.80
2019-04-27T17:12:51.172Z,83.90
2019-04-27T17:15:53.529Z,85.60
2019-04-27T17:18:52.963Z,85.20
2019-04-27T17:21:33.442Z,85.70
2019-04-27T17:24:33.489Z,86.30
2019-04-27T17:27:16.243Z,87.20
2019-04-27T17:29:59.541Z,87.00
2019-04-27T17:35:51.926Z,84.00
2019-04-27T17:38:31.943Z,83.80
2019-04-27T17:41:12.661Z,83.80
2019-04-27T17:43:53.038Z,83.20
2019-04-27T17:46:33.127Z,83.80
2019-04-27T17:52:26.629Z,82.80
2019-04-27T17:55:07.948Z,82.80
2019-04-27T17:57:49.068Z,82.00
2019-04-27T18:00:32.903Z,81.30
2019-04-27T18:09:18.728Z,78.80
2019-04-27T18:11:59.326Z,77.80
2019-04-27T18:17:54.360Z,76.80
2019-04-27T18:20:34.453Z,78.10
2019-04-27T18:23:18.554Z,78.50
2019-04-27T18:29:08.150Z,81.10
2019-04-27T18:31:53.076Z,79.50
2019-04-27T18:34:29.937Z,78.10
2019-04-27T18:37:10.113Z,78.90
2019-04-27T18:39:54.665Z,79.40
2019-04-27T18:42:23.209Z,78.40
2019-04-27T18:45:08.622Z,79.30
2019-04-27T18:47:53.751Z,79.60
2019-04-27T18:50:53.138Z,79.10
2019-04-27T18:56:51.700Z,79.80
2019-04-27T18:59:28.864Z,79.40
2019-04-27T19:02:09.537Z,79.60
2019-04-27T19:04:50.147Z,78.70
2019-04-27T19:07:30.683Z,79.30
2019-04-27T19:10:10.956Z,80.30
2019-04-27T19:12:51.250Z,81.10
2019-04-27T19:15:31.165Z,81.90
2019-04-27T19:18:11.651Z,81.70
2019-04-27T19:20:51.426Z,81.80
2019-04-27T19:23:31.687Z,81.60
2019-04-27T19:26:18.631Z,81.60
2019-04-27T19:29:08.435Z,82.30
2019-04-27T19:31:52.814Z,83.70
2019-04-27T19:34:32.695Z,83.30
2019-04-27T19:37:13.163Z,83.50
2019-04-27T19:39:52.985Z,84.10
2019-04-27T19:42:32.946Z,85.20
2019-04-27T19:45:13.540Z,86.10
2019-04-27T19:47:52.289Z,87.30
2019-04-27T19:50:39.587Z,86.40
2019-04-27T19:53:19.520Z,84.40
2019-04-27T19:56:02.242Z,84.90
2019-04-27T20:01:51.441Z,85.70
2019-04-27T20:04:33.072Z,85.70
2019-04-27T20:07:13.955Z,88.10
2019-04-27T20:13:04.881Z,82.30
2019-04-27T20:15:45.094Z,83.10
2019-04-27T20:18:25.181Z,84.10
2019-04-27T20:21:06.483Z,84.70
2019-04-27T20:23:46.443Z,85.00
2019-04-27T20:26:26.284Z,85.50
2019-04-27T20:29:06.602Z,84.60
2019-04-27T20:31:46.761Z,83.20
2019-04-27T20:34:15.453Z,81.70
2019-04-27T20:37:02.478Z,81.20
2019-04-27T20:39:43.286Z,80.30
2019-04-27T20:42:23.071Z,80.80
2019-04-27T20:45:03.206Z,83.40
2019-04-27T20:47:43.266Z,84.00
2019-04-27T20:50:10.999Z,85.60
2019-04-27T20:55:53.494Z,86.70
2019-04-27T20:58:33.925Z,86.10
2019-04-27T21:01:14.222Z,85.60
2019-04-27T21:03:56.576Z,83.30
2019-04-27T21:06:40.806Z,84.00
2019-04-27T21:09:22.286Z,85.30
2019-04-27T21:12:02.946Z,86.50
2019-04-27T21:14:42.786Z,87.50
2019-04-27T21:17:22.916Z,87.20
2019-04-27T21:20:02.643Z,87.60
2019-04-27T21:22:43.197Z,87.70
2019-04-27T21:25:23.346Z,88.10
2019-04-27T21:28:15.497Z,87.50
2019-04-27T21:30:45.239Z,88.00
2019-04-27T21:33:12.828Z,87.70
2019-04-27T21:36:01.410Z,88.70
2019-04-27T21:41:31.103Z,87.00
2019-04-27T21:44:11.555Z,87.40
2019-04-27T21:46:51.700Z,87.40
2019-04-27T21:49:38.758Z,88.40
2019-04-27T21:55:27.290Z,88.90
2019-04-27T21:58:06.937Z,89.10
2019-04-27T22:01:06.577Z,88.50
2019-04-27T22:03:46.342Z,88.10
2019-04-27T22:06:26.392Z,88.70
2019-04-27T22:09:08.246Z,89.30
2019-04-27T22:11:48.662Z,89.00
2019-04-27T22:14:16.321Z,88.90
2019-04-27T22:17:03.359Z,88.60
2019-04-27T22:22:54.062Z,89.60
2019-04-27T22:25:35.815Z,90.00
2019-04-27T22:28:16.445Z,90.00
2019-04-27T22:30:56.415Z,90.10
2019-04-27T22:33:36.486Z,90.40
2019-04-27T22:36:16.798Z,89.80
2019-04-27T22:39:01.573Z,90.30
2019-04-27T22:45:19.829Z,90.30
2019-04-27T22:48:01.177Z,90.30
2019-04-27T22:50:41.574Z,89.00
2019-04-27T22:53:21.724Z,86.30
2019-04-27T22:56:22.295Z,85.40
2019-04-27T22:59:22.261Z,86.20
2019-04-27T23:02:21.803Z,84.60
2019-04-27T23:07:51.755Z,85.90
2019-04-27T23:10:21.254Z,85.70
2019-04-27T23:18:46.325Z,82.90
2019-04-27T23:21:33.381Z,80.10
2019-04-27T23:24:13.611Z,79.00
2019-04-27T23:26:53.713Z,77.70
2019-04-27T23:29:33.848Z,78.10
2019-04-27T23:35:21.245Z,78.00
2019-04-27T23:38:14.489Z,77.90
2019-04-27T23:40:43.389Z,76.50
2019-04-27T23:43:23.453Z,76.70
2019-04-27T23:46:11.547Z,74.80
2019-04-27T23:48:53.917Z,74.00
2019-04-27T23:51:53.123Z,74.00
2019-04-27T23:54:20.788Z,73.60
2019-04-27T23:56:48.725Z,74.80
2019-04-27T23:59:35.749Z,75.10
